^^

NEARBY METAR REPORTS

KSQI - Sterling Rockfal, Illinois, USA
Distance from station: ESE 17mi, 27km
Updated: 12/15/2017 10:56pm
Overcast
Overcast
 Wind from varies
Wind: varies 6 mph , 9 km/h
Temperature: 36°F , 2°C
Wind Chill: 31°F , -1°C
Dew Point: 21°F , -6°C
Humidity: 56%
Barometer: 29.88 inHg , 1011.9 hPa
Clouds: Overcast
Visibility: 10 miles , 16 km
Cloud details: Overcast 9000 ft
2017/12/16 04:56 KSQI 160456Z AUTO VRB05KT 10SM OVC090 02/M06 A2988 RMK AO2 SLP140 T00221056 FZRANO
KCWI - Clinton Muni, Iowa, USA
Distance from station: W 17mi, 28km
Updated: 12/15/2017 10:56pm
Mostly Cloudy
Mostly Cloudy
 Wind from SSW
Wind: SSW 17 mph , 28 km/h
Temperature: 36°F , 2°C
Wind Chill: 26°F , -3°C
Dew Point: 21°F , -6°C
Humidity: 56%
Barometer: 29.85 inHg , 1010.8 hPa
Clouds: Mostly Cloudy
Visibility: 10 miles , 16 km
Cloud details: Mostly Cloudy 8500 ft
2017/12/16 04:56 KCWI 160456Z AUTO 21015KT 10SM BKN085 02/M06 A2985 RMK AO2 SLP137 T00221056 FZRANO
KSFY - Savanna/Tritown, Illinois, USA
Distance from station: NNW 17mi, 28km
Updated: 12/15/2017 10:55pm
Overcast
Overcast
 Wind from SSW
Wind: SSW 13 mph , 20 km/h
Temperature: 37°F , 3°C
Wind Chill: 29°F , -2°C
Dew Point: 23°F , -5°C
Humidity: 56%
Barometer: 29.85 inHg , 1010.8 hPa
Clouds: Overcast
Visibility: 10 miles , 16 km
Cloud details: Overcast 9000 ft
2017/12/16 04:55 KSFY 160455Z AUTO 21011KT 10SM OVC090 03/M05 A2985 RMK AO2 T00301052
KDVN - Davenport/Quad C, Iowa, USA
Distance from station: WSW 34mi, 55km
Updated: 12/15/2017 10:52pm
Overcast
Overcast
 Wind from S
Wind: S 13 mph , 20 km/h
Temperature: 36°F , 2°C
Wind Chill: 27°F , -3°C
Dew Point: 21°F , -6°C
Humidity: 56%
Barometer: 29.88 inHg , 1011.9 hPa
Clouds: Overcast
Visibility: 10 miles , 16 km
Cloud details: Overcast 10000 ft
2017/12/16 04:52 KDVN 160452Z AUTO 19011KT 10SM OVC100 02/M06 A2988 RMK AO2 SLP121 T00171061
KFEP - Freeport, Illinois, USA
Distance from station: NE 36mi, 58km
Updated: 12/15/2017 10:55pm
Overcast
Overcast
 Wind from SSW
Wind: SSW 17 mph , 28 km/h, Gust: 23 mph , 37 km/h
Temperature: 34°F , 1°C
Wind Chill: 23°F , -5°C
Dew Point: 23°F , -5°C
Humidity: 65%
Barometer: 29.86 inHg , 1011.2 hPa
Clouds: Overcast
Visibility: 10 miles , 16 km
Cloud details: Overcast 10000 ft
2017/12/16 04:55 KFEP 160455Z AUTO 21015G20KT 10SM OVC100 01/M05 A2986 RMK AO2 T00081048
KMLI - Moline/Quad City, Illinois, USA
Distance from station: SW 38mi, 61km
Updated: 12/15/2017 10:52pm
Overcast
Overcast
 Wind from SSW
Wind: SSW 14 mph , 22 km/h
Temperature: 37°F , 3°C
Wind Chill: 28°F , -2°C
Dew Point: 21°F , -6°C
Humidity: 52%
Barometer: 29.86 inHg , 1011.2 hPa
Clouds: Overcast
Visibility: 10 miles , 16 km
Cloud details: Overcast 10000 ft
2017/12/16 04:52 KMLI 160452Z AUTO 20012KT 10SM OVC100 03/M06 A2986 RMK AO2 SLP118 T00331056
KRPJ - Rochelle/Koritz, Illinois, USA
Distance from station: E 46mi, 75km
Updated: 12/15/2017 10:55pm
Overcast
Overcast
 Wind from SW
Wind: SW 15 mph , 24 km/h, Gust: 18 mph , 30 km/h
Temperature: 34°F , 1°C
Wind Chill: 24°F , -4°C
Dew Point: 23°F , -5°C
Humidity: 65%
Barometer: 29.88 inHg , 1011.9 hPa
Clouds: Overcast
Visibility: 10 miles , 16 km
Cloud details: Overcast 9000 ft
2017/12/16 04:55 KRPJ 160455Z AUTO 22013G16KT 10SM OVC090 01/M05 A2988 RMK AO2 T00131050
KRFD - Rockford, Illinois, USA
Distance from station: ENE 52mi, 84km
Updated: 12/15/2017 10:54pm
Overcast
Overcast
 Wind from SW
Wind: SW 15 mph , 24 km/h, Gust: 21 mph , 33 km/h
Temperature: 36°F , 2°C
Wind Chill: 27°F , -3°C
Dew Point: 21°F , -6°C
Humidity: 56%
Barometer: 29.87 inHg , 1011.5 hPa
Clouds: Overcast
Visibility: 10 miles , 16 km
Cloud details: Mostly Cloudy 9000 ft
Overcast 11000 ft
2017/12/16 04:54 KRFD 160454Z 22013G18KT 10SM BKN090 OVC110 02/M06 A2987 RMK AO2 SLP123 T00171056
KVYS - Peru, Illinois, USA
Distance from station: SE 54mi, 86km
Updated: 12/15/2017 10:55pm
Overcast
Overcast
 Wind from SW
Wind: SW 15 mph , 24 km/h
Temperature: 36°F , 2°C
Wind Chill: 27°F , -3°C
Dew Point: 21°F , -6°C
Humidity: 56%
Barometer: 29.92 inHg , 1013.2 hPa
Clouds: Overcast
Visibility: 10 miles , 16 km
Cloud details: Overcast 10000 ft
2017/12/16 04:55 KVYS 160455Z AUTO 23013KT 10SM OVC100 02/M06 A2992 RMK AO2 T00201065
KDBQ - Dubuque, Iowa, USA
Distance from station: NW 55mi, 88km
Updated: 12/15/2017 10:53pm
Overcast
Overcast
 Wind from SW
Wind: SW 14 mph , 22 km/h
Temperature: 36°F , 2°C
Wind Chill: 27°F , -3°C
Dew Point: 23°F , -5°C
Humidity: 60%
Barometer: 29.80 inHg , 1009.1 hPa
Clouds: Overcast
Visibility: 10 miles , 16 km
Cloud details: Mostly Cloudy 9000 ft
Overcast 12000 ft
2017/12/16 04:53 KDBQ 160453Z AUTO 22012KT 10SM BKN090 OVC120 02/M05 A2980 RMK AO2 SLP103 T00171050